sensor_id;sensor_type;location;lat;lon;timestamp;P1;durP1;ratioP1;P2;durP2;ratioP2
44126;SDS011;29786;50.798;7.302;2023-09-18T00:00:46;9.2;;;4.7;;
44126;SDS011;29786;50.798;7.302;2023-09-18T00:01:45;9.8;;;4.3;;
44126;SDS011;29786;50.798;7.302;2023-09-18T00:02:45;8;;;4.5;;
44126;SDS011;29786;50.798;7.302;2023-09-18T00:03:45;7.8;;;4.6;;
44126;SDS011;29786;50.798;7.302;2023-09-18T00:04:45;7.9;;;4.3;;
44126;SDS011;29786;50.798;7.302;2023-09-18T00:05:46;10.9;;;4.8;;
44126;SDS011;29786;50.798;7.302;2023-09-18T00:06:45;7.9;;;4.6;;
44126;SDS011;29786;50.798;7.302;2023-09-18T00:07:45;9;;;4.4;;
44126;SDS011;29786;50.798;7.302;2023-09-18T00:08:45;9;;;4.4;;
44126;SDS011;29786;50.798;7.302;2023-09-18T00:09:45;8.1;;;4.3;;
44126;SDS011;29786;50.798;7.302;2023-09-18T00:10:47;6.2;;;4.3;;
44126;SDS011;29786;50.798;7.302;2023-09-18T00:11:45;8;;;4.4;;
44126;SDS011;29786;50.798;7.302;2023-09-18T00:12:45;8.3;;;5.2;;
44126;SDS011;29786;50.798;7.302;2023-09-18T00:13:45;7.3;;;4.3;;
44126;SDS011;29786;50.798;7.302;2023-09-18T00:14:49;8.8;;;4.5;;
44126;SDS011;29786;50.798;7.302;2023-09-18T00:15:45;9.6;;;4.6;;
44126;SDS011;29786;50.798;7.302;2023-09-18T00:16:45;8.8;;;4.6;;
44126;SDS011;29786;50.798;7.302;2023-09-18T00:17:45;9.1;;;4.6;;
44126;SDS011;29786;50.798;7.302;2023-09-18T00:18:45;10.4;;;4.2;;
44126;SDS011;29786;50.798;7.302;2023-09-18T00:19:45;7.2;;;4.1;;
44126;SDS011;29786;50.798;7.302;2023-09-18T00:20:45;8;;;4.5;;
44126;SDS011;29786;50.798;7.302;2023-09-18T00:21:45;9.7;;;4.3;;
44126;SDS011;29786;50.798;7.302;2023-09-18T00:22:45;7.6;;;4.3;;
44126;SDS011;29786;50.798;7.302;2023-09-18T00:23:45;7.8;;;4.7;;
44126;SDS011;29786;50.798;7.302;2023-09-18T00:24:45;9.3;;;4.5;;
44126;SDS011;29786;50.798;7.302;2023-09-18T00:25:45;8.2;;;4.6;;
44126;SDS011;29786;50.798;7.302;2023-09-18T00:26:45;7.3;;;4.1;;
44126;SDS011;29786;50.798;7.302;2023-09-18T00:27:45;10.3;;;4.7;;
44126;SDS011;29786;50.798;7.302;2023-09-18T00:28:45;9.8;;;4.8;;
44126;SDS011;29786;50.798;7.302;2023-09-18T00:29:45;9;;;4.2;;
44126;SDS011;29786;50.798;7.302;2023-09-18T00:30:47;7.5;;;4.5;;
44126;SDS011;29786;50.798;7.302;2023-09-18T00:31:45;9.4;;;4.6;;
44126;SDS011;29786;50.798;7.302;2023-09-18T00:32:45;8.6;;;4.6;;
44126;SDS011;29786;50.798;7.302;2023-09-18T00:33:45;6.2;;;4.3;;
44126;SDS011;29786;50.798;7.302;2023-09-18T00:34:45;6.8;;;4.2;;
44126;SDS011;29786;50.798;7.302;2023-09-18T00:35:47;8.7;;;4.3;;
44126;SDS011;29786;50.798;7.302;2023-09-18T00:36:45;7.3;;;4.6;;
44126;SDS011;29786;50.798;7.302;2023-09-18T00:37:45;7.9;;;4.4;;
44126;SDS011;29786;50.798;7.302;2023-09-18T00:38:45;7;;;4.2;;
44126;SDS011;29786;50.798;7.302;2023-09-18T00:39:45;8.3;;;4.4;;
44126;SDS011;29786;50.798;7.302;2023-09-18T00:40:46;10.4;;;4.2;;
44126;SDS011;29786;50.798;7.302;2023-09-18T00:41:45;9.5;;;4.7;;
44126;SDS011;29786;50.798;7.302;2023-09-18T00:42:45;7.3;;;4.3;;
44126;SDS011;29786;50.798;7.302;2023-09-18T00:43:45;8;;;4.2;;
44126;SDS011;29786;50.798;7.302;2023-09-18T00:44:46;7.2;;;4;;
44126;SDS011;29786;50.798;7.302;2023-09-18T00:45:45;7.9;;;4.3;;
44126;SDS011;29786;50.798;7.302;2023-09-18T00:46:45;9.3;;;4.2;;
44126;SDS011;29786;50.798;7.302;2023-09-18T00:47:45;6.9;;;4.1;;
44126;SDS011;29786;50.798;7.302;2023-09-18T00:48:45;7.6;;;4.1;;
44126;SDS011;29786;50.798;7.302;2023-09-18T00:49:47;11.2;;;4.6;;
44126;SDS011;29786;50.798;7.302;2023-09-18T00:50:46;7.7;;;4.2;;
44126;SDS011;29786;50.798;7.302;2023-09-18T00:51:45;6.9;;;4.5;;
44126;SDS011;29786;50.798;7.302;2023-09-18T00:52:45;6.6;;;4.1;;
44126;SDS011;29786;50.798;7.302;2023-09-18T00:53:46;11.8;;;4.5;;
44126;SDS011;29786;50.798;7.302;2023-09-18T00:54:45;10.5;;;4.5;;
44126;SDS011;29786;50.798;7.302;2023-09-18T00:55:45;8.1;;;4.4;;
44126;SDS011;29786;50.798;7.302;2023-09-18T00:56:46;10.2;;;4.3;;
44126;SDS011;29786;50.798;7.302;2023-09-18T00:57:45;6.9;;;4.1;;
44126;SDS011;29786;50.798;7.302;2023-09-18T00:58:45;7.9;;;4.5;;
44126;SDS011;29786;50.798;7.302;2023-09-18T00:59:45;9;;;4.3;;
44126;SDS011;29786;50.798;7.302;2023-09-18T01:00:45;6;;;3.9;;
44126;SDS011;29786;50.798;7.302;2023-09-18T01:01:45;9.4;;;4.8;;
44126;SDS011;29786;50.798;7.302;2023-09-18T01:02:45;7.4;;;4.3;;
44126;SDS011;29786;50.798;7.302;2023-09-18T01:03:45;7.9;;;4.7;;
44126;SDS011;29786;50.798;7.302;2023-09-18T01:04:46;5.9;;;3.7;;
44126;SDS011;29786;50.798;7.302;2023-09-18T01:05:45;9.4;;;4;;
44126;SDS011;29786;50.798;7.302;2023-09-18T01:06:45;7.7;;;4.4;;
44126;SDS011;29786;50.798;7.302;2023-09-18T01:07:45;9.6;;;4;;
44126;SDS011;29786;50.798;7.302;2023-09-18T01:08:45;7.8;;;3.8;;
44126;SDS011;29786;50.798;7.302;2023-09-18T01:09:45;7.3;;;4.1;;
44126;SDS011;29786;50.798;7.302;2023-09-18T01:11:04;9.3;;;4.5;;
44126;SDS011;29786;50.798;7.302;2023-09-18T01:11:49;11.1;;;4.5;;
44126;SDS011;29786;50.798;7.302;2023-09-18T01:12:48;7.7;;;4.2;;
44126;SDS011;29786;50.798;7.302;2023-09-18T01:13:49;6;;;4.1;;
44126;SDS011;29786;50.798;7.302;2023-09-18T01:14:50;7.2;;;4.1;;
44126;SDS011;29786;50.798;7.302;2023-09-18T01:15:48;8;;;3.9;;
44126;SDS011;29786;50.798;7.302;2023-09-18T01:16:53;10.8;;;3.9;;
44126;SDS011;29786;50.798;7.302;2023-09-18T01:17:45;9.2;;;4.5;;
44126;SDS011;29786;50.798;7.302;2023-09-18T01:18:49;7.9;;;4.2;;
44126;SDS011;29786;50.798;7.302;2023-09-18T01:19:46;7.2;;;4;;
44126;SDS011;29786;50.798;7.302;2023-09-18T01:20:45;8.4;;;4;;
44126;SDS011;29786;50.798;7.302;2023-09-18T01:21:45;7.3;;;4.1;;
44126;SDS011;29786;50.798;7.302;2023-09-18T01:22:45;9.3;;;4;;
44126;SDS011;29786;50.798;7.302;2023-09-18T01:23:45;9.8;;;4.3;;
44126;SDS011;29786;50.798;7.302;2023-09-18T01:24:47;8.8;;;4.2;;
44126;SDS011;29786;50.798;7.302;2023-09-18T01:25:45;9.1;;;4.1;;
44126;SDS011;29786;50.798;7.302;2023-09-18T01:26:45;8.7;;;4.6;;
44126;SDS011;29786;50.798;7.302;2023-09-18T01:27:45;7.1;;;4;;
44126;SDS011;29786;50.798;7.302;2023-09-18T01:28:45;6.8;;;3.9;;
44126;SDS011;29786;50.798;7.302;2023-09-18T01:29:46;6.4;;;3.7;;
44126;SDS011;29786;50.798;7.302;2023-09-18T01:30:45;8.8;;;4.1;;
44126;SDS011;29786;50.798;7.302;2023-09-18T01:31:45;9.3;;;4.1;;
44126;SDS011;29786;50.798;7.302;2023-09-18T01:32:45;7.9;;;4.1;;
44126;SDS011;29786;50.798;7.302;2023-09-18T01:33:45;8;;;4.2;;
44126;SDS011;29786;50.798;7.302;2023-09-18T01:34:47;11.1;;;4.5;;
44126;SDS011;29786;50.798;7.302;2023-09-18T01:35:45;9.2;;;4.2;;
44126;SDS011;29786;50.798;7.302;2023-09-18T01:36:45;7.9;;;4.2;;
44126;SDS011;29786;50.798;7.302;2023-09-18T01:37:45;6.2;;;3.9;;
44126;SDS011;29786;50.798;7.302;2023-09-18T01:38:46;9.5;;;4.2;;
44126;SDS011;29786;50.798;7.302;2023-09-18T01:39:45;6.8;;;3.9;;
44126;SDS011;29786;50.798;7.302;2023-09-18T01:40:45;7.8;;;4.2;;
44126;SDS011;29786;50.798;7.302;2023-09-18T01:41:45;11.5;;;4.4;;
44126;SDS011;29786;50.798;7.302;2023-09-18T01:42:45;10.8;;;4;;
44126;SDS011;29786;50.798;7.302;2023-09-18T01:43:45;8.5;;;4.4;;
44126;SDS011;29786;50.798;7.302;2023-09-18T01:44:46;7.5;;;3.9;;
44126;SDS011;29786;50.798;7.302;2023-09-18T01:45:45;8.5;;;4;;
44126;SDS011;29786;50.798;7.302;2023-09-18T01:46:45;7.5;;;4.6;;
44126;SDS011;29786;50.798;7.302;2023-09-18T01:47:46;6.9;;;3.7;;
44126;SDS011;29786;50.798;7.302;2023-09-18T01:48:46;11.6;;;4.4;;
44126;SDS011;29786;50.798;7.302;2023-09-18T01:49:45;8;;;4.2;;
44126;SDS011;29786;50.798;7.302;2023-09-18T01:50:45;6.7;;;3.7;;
44126;SDS011;29786;50.798;7.302;2023-09-18T01:51:45;9.5;;;4.1;;
44126;SDS011;29786;50.798;7.302;2023-09-18T01:52:45;5.8;;;4.3;;
44126;SDS011;29786;50.798;7.302;2023-09-18T01:53:45;7.9;;;4;;
44126;SDS011;29786;50.798;7.302;2023-09-18T01:54:45;8.3;;;4;;
44126;SDS011;29786;50.798;7.302;2023-09-18T01:55:45;7.8;;;4;;
44126;SDS011;29786;50.798;7.302;2023-09-18T01:56:45;5.9;;;3.6;;
44126;SDS011;29786;50.798;7.302;2023-09-18T01:57:45;8.2;;;4.1;;
44126;SDS011;29786;50.798;7.302;2023-09-18T01:58:45;7.6;;;3.9;;
44126;SDS011;29786;50.798;7.302;2023-09-18T01:59:45;6.4;;;3.7;;
44126;SDS011;29786;50.798;7.302;2023-09-18T02:00:45;9.3;;;3.9;;
44126;SDS011;29786;50.798;7.302;2023-09-18T02:01:45;7.7;;;3.7;;
44126;SDS011;29786;50.798;7.302;2023-09-18T02:02:45;8.6;;;4.3;;
44126;SDS011;29786;50.798;7.302;2023-09-18T02:03:45;5.2;;;3.9;;
44126;SDS011;29786;50.798;7.302;2023-09-18T02:04:45;5.8;;;3.9;;
44126;SDS011;29786;50.798;7.302;2023-09-18T02:05:50;6.9;;;3.8;;
44126;SDS011;29786;50.798;7.302;2023-09-18T02:06:46;8;;;4.1;;
44126;SDS011;29786;50.798;7.302;2023-09-18T02:07:45;5.5;;;3.8;;
44126;SDS011;29786;50.798;7.302;2023-09-18T02:08:45;6.1;;;3.9;;
44126;SDS011;29786;50.798;7.302;2023-09-18T02:09:45;7.5;;;3.8;;
44126;SDS011;29786;50.798;7.302;2023-09-18T02:10:46;8.2;;;4;;
44126;SDS011;29786;50.798;7.302;2023-09-18T02:11:46;8.8;;;3.7;;
44126;SDS011;29786;50.798;7.302;2023-09-18T02:12:45;9.8;;;3.8;;
44126;SDS011;29786;50.798;7.302;2023-09-18T02:13:45;7.1;;;4.1;;
44126;SDS011;29786;50.798;7.302;2023-09-18T02:14:45;10.8;;;4.1;;
44126;SDS011;29786;50.798;7.302;2023-09-18T02:15:45;6.1;;;3.5;;
44126;SDS011;29786;50.798;7.302;2023-09-18T02:16:45;6.9;;;3.8;;
44126;SDS011;29786;50.798;7.302;2023-09-18T02:17:45;6.2;;;4.1;;
44126;SDS011;29786;50.798;7.302;2023-09-18T02:18:45;6.6;;;3.6;;
44126;SDS011;29786;50.798;7.302;2023-09-18T02:21:45;8.2;;;4;;
44126;SDS011;29786;50.798;7.302;2023-09-18T02:22:45;8.5;;;4;;
44126;SDS011;29786;50.798;7.302;2023-09-18T02:23:48;7.7;;;3.9;;
44126;SDS011;29786;50.798;7.302;2023-09-18T02:24:45;8.8;;;3.6;;
44126;SDS011;29786;50.798;7.302;2023-09-18T02:25:45;6.9;;;3.9;;
44126;SDS011;29786;50.798;7.302;2023-09-18T02:26:45;7.4;;;3.7;;
44126;SDS011;29786;50.798;7.302;2023-09-18T02:27:45;10.4;;;4.3;;
44126;SDS011;29786;50.798;7.302;2023-09-18T02:28:45;6.2;;;3.4;;
44126;SDS011;29786;50.798;7.302;2023-09-18T02:29:45;8.4;;;4.1;;
44126;SDS011;29786;50.798;7.302;2023-09-18T02:30:45;10.5;;;4;;
44126;SDS011;29786;50.798;7.302;2023-09-18T02:31:45;7.5;;;3.7;;
44126;SDS011;29786;50.798;7.302;2023-09-18T02:32:45;8.7;;;4.1;;
44126;SDS011;29786;50.798;7.302;2023-09-18T02:33:45;5.4;;;3.7;;
44126;SDS011;29786;50.798;7.302;2023-09-18T02:34:45;9.3;;;3.9;;
44126;SDS011;29786;50.798;7.302;2023-09-18T02:35:45;11.7;;;4.1;;
44126;SDS011;29786;50.798;7.302;2023-09-18T02:36:45;9.2;;;3.9;;
44126;SDS011;29786;50.798;7.302;2023-09-18T02:37:45;10.3;;;3.7;;
44126;SDS011;29786;50.798;7.302;2023-09-18T02:38:45;7.8;;;3.8;;
44126;SDS011;29786;50.798;7.302;2023-09-18T02:39:45;7.8;;;3.6;;
44126;SDS011;29786;50.798;7.302;2023-09-18T02:40:45;9.2;;;4.2;;
44126;SDS011;29786;50.798;7.302;2023-09-18T02:41:45;8.7;;;4;;
44126;SDS011;29786;50.798;7.302;2023-09-18T02:42:45;10.2;;;4;;
44126;SDS011;29786;50.798;7.302;2023-09-18T02:43:45;9.9;;;3.7;;
44126;SDS011;29786;50.798;7.302;2023-09-18T02:44:45;10.3;;;4.2;;
44126;SDS011;29786;50.798;7.302;2023-09-18T02:45:45;9.8;;;3.8;;
44126;SDS011;29786;50.798;7.302;2023-09-18T02:46:45;10.6;;;3.9;;
44126;SDS011;29786;50.798;7.302;2023-09-18T02:47:45;9.2;;;4;;
44126;SDS011;29786;50.798;7.302;2023-09-18T02:48:45;13.3;;;5;;
44126;SDS011;29786;50.798;7.302;2023-09-18T02:49:45;9.6;;;4.4;;
44126;SDS011;29786;50.798;7.302;2023-09-18T02:50:45;8.4;;;4.3;;
44126;SDS011;29786;50.798;7.302;2023-09-18T02:51:50;10.6;;;4;;
44126;SDS011;29786;50.798;7.302;2023-09-18T02:52:45;10.5;;;3.6;;
44126;SDS011;29786;50.798;7.302;2023-09-18T02:53:45;9.8;;;3.7;;
44126;SDS011;29786;50.798;7.302;2023-09-18T02:54:45;10.1;;;3.8;;
44126;SDS011;29786;50.798;7.302;2023-09-18T02:55:49;9.2;;;3.7;;
44126;SDS011;29786;50.798;7.302;2023-09-18T02:56:45;12.3;;;4.2;;
44126;SDS011;29786;50.798;7.302;2023-09-18T02:57:45;9.2;;;3.8;;
44126;SDS011;29786;50.798;7.302;2023-09-18T02:58:45;9.5;;;3.8;;
44126;SDS011;29786;50.798;7.302;2023-09-18T02:59:45;12;;;4.1;;
44126;SDS011;29786;50.798;7.302;2023-09-18T03:00:46;12.4;;;3.9;;
44126;SDS011;29786;50.798;7.302;2023-09-18T03:01:45;5.9;;;3.7;;
44126;SDS011;29786;50.798;7.302;2023-09-18T03:02:45;9.4;;;3.9;;
44126;SDS011;29786;50.798;7.302;2023-09-18T03:03:45;9.9;;;3.5;;
44126;SDS011;29786;50.798;7.302;2023-09-18T03:04:45;9.6;;;3.5;;
44126;SDS011;29786;50.798;7.302;2023-09-18T03:05:45;8.6;;;3.8;;
44126;SDS011;29786;50.798;7.302;2023-09-18T03:06:45;9.5;;;3.5;;
44126;SDS011;29786;50.798;7.302;2023-09-18T03:07:45;11.5;;;4.1;;
44126;SDS011;29786;50.798;7.302;2023-09-18T03:08:45;10.4;;;3.8;;
44126;SDS011;29786;50.798;7.302;2023-09-18T03:09:45;10.7;;;3.7;;
44126;SDS011;29786;50.798;7.302;2023-09-18T03:10:45;7;;;3.9;;
44126;SDS011;29786;50.798;7.302;2023-09-18T03:11:45;9.2;;;3.9;;
44126;SDS011;29786;50.798;7.302;2023-09-18T03:12:47;11;;;4;;
44126;SDS011;29786;50.798;7.302;2023-09-18T03:13:46;11.4;;;3.8;;
44126;SDS011;29786;50.798;7.302;2023-09-18T03:14:45;12.1;;;4.1;;
44126;SDS011;29786;50.798;7.302;2023-09-18T03:15:46;10.8;;;3.6;;
44126;SDS011;29786;50.798;7.302;2023-09-18T03:16:45;10.9;;;3.8;;
44126;SDS011;29786;50.798;7.302;2023-09-18T03:17:45;7.6;;;4.6;;
44126;SDS011;29786;50.798;7.302;2023-09-18T03:18:45;10.3;;;3.8;;
44126;SDS011;29786;50.798;7.302;2023-09-18T03:19:47;10;;;3.9;;
44126;SDS011;29786;50.798;7.302;2023-09-18T03:20:45;11.9;;;4;;
44126;SDS011;29786;50.798;7.302;2023-09-18T03:21:45;7.3;;;4.1;;
44126;SDS011;29786;50.798;7.302;2023-09-18T03:22:45;8.1;;;3.8;;
44126;SDS011;29786;50.798;7.302;2023-09-18T03:23:45;7.7;;;4.1;;
44126;SDS011;29786;50.798;7.302;2023-09-18T03:24:45;9.2;;;4.1;;
44126;SDS011;29786;50.798;7.302;2023-09-18T03:25:45;10.9;;;3.8;;
44126;SDS011;29786;50.798;7.302;2023-09-18T03:26:45;13;;;4.1;;
44126;SDS011;29786;50.798;7.302;2023-09-18T03:27:45;8;;;3.9;;
44126;SDS011;29786;50.798;7.302;2023-09-18T03:28:45;11.4;;;4.4;;
44126;SDS011;29786;50.798;7.302;2023-09-18T03:29:45;9.3;;;4.1;;
44126;SDS011;29786;50.798;7.302;2023-09-18T03:30:45;6.8;;;3.6;;
44126;SDS011;29786;50.798;7.302;2023-09-18T03:31:45;11.9;;;3.8;;
44126;SDS011;29786;50.798;7.302;2023-09-18T03:32:45;10.6;;;3.9;;
44126;SDS011;29786;50.798;7.302;2023-09-18T03:33:45;8.1;;;3.8;;
44126;SDS011;29786;50.798;7.302;2023-09-18T03:34:45;10.4;;;3.9;;
44126;SDS011;29786;50.798;7.302;2023-09-18T03:35:47;12.5;;;4.2;;
44126;SDS011;29786;50.798;7.302;2023-09-18T03:36:45;10.4;;;4.4;;
44126;SDS011;29786;50.798;7.302;2023-09-18T03:37:47;8.1;;;3.6;;
44126;SDS011;29786;50.798;7.302;2023-09-18T03:38:45;9.5;;;3.6;;
44126;SDS011;29786;50.798;7.302;2023-09-18T03:39:45;13.1;;;4.1;;
44126;SDS011;29786;50.798;7.302;2023-09-18T03:40:45;12.4;;;4.3;;
44126;SDS011;29786;50.798;7.302;2023-09-18T03:41:45;10.6;;;3.9;;
44126;SDS011;29786;50.798;7.302;2023-09-18T03:42:45;10.3;;;4.1;;
44126;SDS011;29786;50.798;7.302;2023-09-18T03:43:45;10;;;4.1;;
44126;SDS011;29786;50.798;7.302;2023-09-18T03:44:45;9.2;;;3.8;;
44126;SDS011;29786;50.798;7.302;2023-09-18T03:45:45;13;;;4.1;;
44126;SDS011;29786;50.798;7.302;2023-09-18T03:46:45;10.5;;;3.7;;
44126;SDS011;29786;50.798;7.302;2023-09-18T03:47:45;10.4;;;3.7;;
44126;SDS011;29786;50.798;7.302;2023-09-18T03:48:45;11.4;;;4.2;;
44126;SDS011;29786;50.798;7.302;2023-09-18T03:49:45;9.1;;;3.9;;
44126;SDS011;29786;50.798;7.302;2023-09-18T03:50:47;13;;;4;;
44126;SDS011;29786;50.798;7.302;2023-09-18T03:51:45;12;;;4.2;;
44126;SDS011;29786;50.798;7.302;2023-09-18T03:52:45;10.6;;;4;;
44126;SDS011;29786;50.798;7.302;2023-09-18T03:53:45;11.8;;;4.1;;
44126;SDS011;29786;50.798;7.302;2023-09-18T03:54:45;7.8;;;3.4;;
44126;SDS011;29786;50.798;7.302;2023-09-18T03:55:45;10.3;;;3.9;;
44126;SDS011;29786;50.798;7.302;2023-09-18T03:56:45;10.4;;;4.1;;
44126;SDS011;29786;50.798;7.302;2023-09-18T03:57:45;13;;;4.6;;
44126;SDS011;29786;50.798;7.302;2023-09-18T03:58:45;8.9;;;3.9;;
44126;SDS011;29786;50.798;7.302;2023-09-18T03:59:45;11.3;;;3.9;;
44126;SDS011;29786;50.798;7.302;2023-09-18T04:00:45;12.9;;;4;;
44126;SDS011;29786;50.798;7.302;2023-09-18T04:01:45;14.2;;;3.9;;
44126;SDS011;29786;50.798;7.302;2023-09-18T04:02:45;12.1;;;3.9;;
44126;SDS011;29786;50.798;7.302;2023-09-18T04:03:45;12.2;;;4.1;;
44126;SDS011;29786;50.798;7.302;2023-09-18T04:04:45;15.8;;;5;;
44126;SDS011;29786;50.798;7.302;2023-09-18T04:05:45;9;;;3.7;;
44126;SDS011;29786;50.798;7.302;2023-09-18T04:06:45;10;;;3.9;;
44126;SDS011;29786;50.798;7.302;2023-09-18T04:07:45;12.1;;;3.9;;
44126;SDS011;29786;50.798;7.302;2023-09-18T04:08:45;11.7;;;4.2;;
44126;SDS011;29786;50.798;7.302;2023-09-18T04:09:45;15.2;;;4;;
44126;SDS011;29786;50.798;7.302;2023-09-18T04:10:45;12.1;;;4.1;;
44126;SDS011;29786;50.798;7.302;2023-09-18T04:11:45;10;;;3.9;;
44126;SDS011;29786;50.798;7.302;2023-09-18T04:12:45;11.9;;;4.1;;
44126;SDS011;29786;50.798;7.302;2023-09-18T04:13:45;10.7;;;3.8;;
44126;SDS011;29786;50.798;7.302;2023-09-18T04:14:46;10.6;;;3.8;;
44126;SDS011;29786;50.798;7.302;2023-09-18T04:15:45;11;;;3.8;;
44126;SDS011;29786;50.798;7.302;2023-09-18T04:16:45;12.9;;;3.9;;
44126;SDS011;29786;50.798;7.302;2023-09-18T04:17:45;12;;;4.1;;
44126;SDS011;29786;50.798;7.302;2023-09-18T04:18:45;11.2;;;3.7;;
44126;SDS011;29786;50.798;7.302;2023-09-18T04:19:47;9.4;;;3.6;;
44126;SDS011;29786;50.798;7.302;2023-09-18T04:20:45;10.7;;;3.8;;
44126;SDS011;29786;50.798;7.302;2023-09-18T04:21:45;10.9;;;4.2;;
44126;SDS011;29786;50.798;7.302;2023-09-18T04:22:46;9;;;3.5;;
44126;SDS011;29786;50.798;7.302;2023-09-18T04:23:45;9.2;;;4;;
44126;SDS011;29786;50.798;7.302;2023-09-18T04:24:45;9.7;;;3.8;;
44126;SDS011;29786;50.798;7.302;2023-09-18T04:25:45;10.4;;;3.6;;
44126;SDS011;29786;50.798;7.302;2023-09-18T04:26:45;9.6;;;3.3;;
44126;SDS011;29786;50.798;7.302;2023-09-18T04:27:45;11.3;;;3.4;;
44126;SDS011;29786;50.798;7.302;2023-09-18T04:28:45;9;;;3.5;;
44126;SDS011;29786;50.798;7.302;2023-09-18T04:29:45;10.4;;;3.5;;
44126;SDS011;29786;50.798;7.302;2023-09-18T04:30:45;8.2;;;3.4;;
44126;SDS011;29786;50.798;7.302;2023-09-18T04:31:45;8.3;;;3;;
44126;SDS011;29786;50.798;7.302;2023-09-18T04:32:45;9.9;;;3.2;;
44126;SDS011;29786;50.798;7.302;2023-09-18T04:33:45;12.7;;;3.3;;
44126;SDS011;29786;50.798;7.302;2023-09-18T04:34:45;6.6;;;3.2;;
44126;SDS011;29786;50.798;7.302;2023-09-18T04:35:45;9.7;;;3.6;;
44126;SDS011;29786;50.798;7.302;2023-09-18T04:36:45;8.8;;;3.4;;
44126;SDS011;29786;50.798;7.302;2023-09-18T04:37:45;8.5;;;3.1;;
44126;SDS011;29786;50.798;7.302;2023-09-18T04:38:45;8.5;;;3.5;;
44126;SDS011;29786;50.798;7.302;2023-09-18T04:39:45;9.5;;;3.5;;
44126;SDS011;29786;50.798;7.302;2023-09-18T04:40:45;13;;;3.8;;
44126;SDS011;29786;50.798;7.302;2023-09-18T04:41:45;8.9;;;3;;
44126;SDS011;29786;50.798;7.302;2023-09-18T04:42:46;7.7;;;3.3;;
44126;SDS011;29786;50.798;7.302;2023-09-18T04:43:46;9.8;;;3.1;;
44126;SDS011;29786;50.798;7.302;2023-09-18T04:44:46;9.5;;;3.1;;
44126;SDS011;29786;50.798;7.302;2023-09-18T04:45:46;9.1;;;3.2;;
44126;SDS011;29786;50.798;7.302;2023-09-18T04:46:46;10;;;3.3;;
44126;SDS011;29786;50.798;7.302;2023-09-18T04:47:45;7.9;;;3.2;;
44126;SDS011;29786;50.798;7.302;2023-09-18T04:48:45;10.4;;;2.9;;
44126;SDS011;29786;50.798;7.302;2023-09-18T04:49:45;8.8;;;3;;
44126;SDS011;29786;50.798;7.302;2023-09-18T04:50:45;10;;;3.2;;
44126;SDS011;29786;50.798;7.302;2023-09-18T04:51:45;5.4;;;2.7;;
44126;SDS011;29786;50.798;7.302;2023-09-18T04:52:45;9.2;;;3.1;;
44126;SDS011;29786;50.798;7.302;2023-09-18T04:53:45;9.4;;;3.5;;
44126;SDS011;29786;50.798;7.302;2023-09-18T04:54:45;7.6;;;3.5;;
44126;SDS011;29786;50.798;7.302;2023-09-18T04:55:45;6;;;2.9;;
44126;SDS011;29786;50.798;7.302;2023-09-18T04:56:45;7.1;;;2.7;;
44126;SDS011;29786;50.798;7.302;2023-09-18T04:57:45;10.5;;;3.3;;
44126;SDS011;29786;50.798;7.302;2023-09-18T04:58:45;11.1;;;3.5;;
44126;SDS011;29786;50.798;7.302;2023-09-18T04:59:45;10.3;;;3;;
44126;SDS011;29786;50.798;7.302;2023-09-18T05:00:45;9.2;;;2.8;;
44126;SDS011;29786;50.798;7.302;2023-09-18T05:01:46;8.7;;;3.1;;
44126;SDS011;29786;50.798;7.302;2023-09-18T05:02:45;8.9;;;2.4;;
44126;SDS011;29786;50.798;7.302;2023-09-18T05:03:45;11.6;;;3.4;;
44126;SDS011;29786;50.798;7.302;2023-09-18T05:04:45;9.4;;;2.9;;
44126;SDS011;29786;50.798;7.302;2023-09-18T05:05:45;8.8;;;2.6;;
44126;SDS011;29786;50.798;7.302;2023-09-18T05:06:45;10.7;;;2.9;;
44126;SDS011;29786;50.798;7.302;2023-09-18T05:07:45;7.2;;;2.9;;
44126;SDS011;29786;50.798;7.302;2023-09-18T05:08:45;7.7;;;3;;
44126;SDS011;29786;50.798;7.302;2023-09-18T05:09:45;7.1;;;2.8;;
44126;SDS011;29786;50.798;7.302;2023-09-18T05:10:46;9.1;;;2.8;;
44126;SDS011;29786;50.798;7.302;2023-09-18T05:11:45;10.9;;;3.1;;
44126;SDS011;29786;50.798;7.302;2023-09-18T05:12:45;7.9;;;3.1;;
44126;SDS011;29786;50.798;7.302;2023-09-18T05:13:45;9.2;;;2.7;;
44126;SDS011;29786;50.798;7.302;2023-09-18T05:14:45;7.8;;;3.1;;
44126;SDS011;29786;50.798;7.302;2023-09-18T05:15:45;7.8;;;3;;
44126;SDS011;29786;50.798;7.302;2023-09-18T05:16:45;9;;;3;;
44126;SDS011;29786;50.798;7.302;2023-09-18T05:17:47;10.5;;;3.2;;
44126;SDS011;29786;50.798;7.302;2023-09-18T05:18:45;7.8;;;3;;
44126;SDS011;29786;50.798;7.302;2023-09-18T05:19:45;7.9;;;2.7;;
44126;SDS011;29786;50.798;7.302;2023-09-18T05:20:45;8;;;2.9;;
44126;SDS011;29786;50.798;7.302;2023-09-18T05:21:46;8.4;;;2.8;;
44126;SDS011;29786;50.798;7.302;2023-09-18T05:22:45;6.6;;;2.5;;
44126;SDS011;29786;50.798;7.302;2023-09-18T05:23:45;8.4;;;2.6;;
44126;SDS011;29786;50.798;7.302;2023-09-18T05:24:45;9;;;3.1;;
44126;SDS011;29786;50.798;7.302;2023-09-18T05:25:45;7.1;;;3.1;;
44126;SDS011;29786;50.798;7.302;2023-09-18T05:26:45;7.6;;;2.5;;
44126;SDS011;29786;50.798;7.302;2023-09-18T05:27:45;6.3;;;2.8;;
44126;SDS011;29786;50.798;7.302;2023-09-18T05:28:45;7.4;;;2.8;;
44126;SDS011;29786;50.798;7.302;2023-09-18T05:29:45;9;;;2.8;;
44126;SDS011;29786;50.798;7.302;2023-09-18T05:30:45;10;;;2.6;;
44126;SDS011;29786;50.798;7.302;2023-09-18T05:31:45;8.3;;;2.4;;
44126;SDS011;29786;50.798;7.302;2023-09-18T05:32:45;7.4;;;3.1;;
44126;SDS011;29786;50.798;7.302;2023-09-18T05:33:45;6;;;2.7;;
44126;SDS011;29786;50.798;7.302;2023-09-18T05:34:45;6.9;;;2.3;;
44126;SDS011;29786;50.798;7.302;2023-09-18T05:35:45;7.7;;;2.8;;
44126;SDS011;29786;50.798;7.302;2023-09-18T05:36:45;7.2;;;2.9;;
44126;SDS011;29786;50.798;7.302;2023-09-18T05:37:45;11;;;3.3;;
44126;SDS011;29786;50.798;7.302;2023-09-18T05:38:45;6.7;;;2.7;;
44126;SDS011;29786;50.798;7.302;2023-09-18T05:39:45;7.6;;;2.9;;
44126;SDS011;29786;50.798;7.302;2023-09-18T05:40:45;9.3;;;3.1;;
44126;SDS011;29786;50.798;7.302;2023-09-18T05:41:45;7.3;;;2.7;;
44126;SDS011;29786;50.798;7.302;2023-09-18T05:42:45;6.9;;;2.5;;
44126;SDS011;29786;50.798;7.302;2023-09-18T05:43:45;6;;;2.4;;
44126;SDS011;29786;50.798;7.302;2023-09-18T05:44:45;7.4;;;2.5;;
44126;SDS011;29786;50.798;7.302;2023-09-18T05:45:45;5.6;;;2.4;;
44126;SDS011;29786;50.798;7.302;2023-09-18T05:46:45;9.2;;;2.9;;
44126;SDS011;29786;50.798;7.302;2023-09-18T05:47:46;7.3;;;2.8;;
44126;SDS011;29786;50.798;7.302;2023-09-18T05:48:45;6.8;;;2.5;;
44126;SDS011;29786;50.798;7.302;2023-09-18T05:49:45;6.2;;;2.4;;
44126;SDS011;29786;50.798;7.302;2023-09-18T05:50:45;7.8;;;3;;
44126;SDS011;29786;50.798;7.302;2023-09-18T05:51:46;8;;;2.7;;
44126;SDS011;29786;50.798;7.302;2023-09-18T05:52:46;7.2;;;2.3;;
44126;SDS011;29786;50.798;7.302;2023-09-18T05:53:45;8.5;;;2.6;;
44126;SDS011;29786;50.798;7.302;2023-09-18T05:54:45;8.9;;;2.6;;
44126;SDS011;29786;50.798;7.302;2023-09-18T05:55:45;5.9;;;2.7;;
44126;SDS011;29786;50.798;7.302;2023-09-18T05:56:45;10.3;;;3;;
44126;SDS011;29786;50.798;7.302;2023-09-18T05:57:45;9;;;2.6;;
44126;SDS011;29786;50.798;7.302;2023-09-18T05:58:45;8.4;;;2.8;;
44126;SDS011;29786;50.798;7.302;2023-09-18T05:59:45;6.3;;;2.8;;
44126;SDS011;29786;50.798;7.302;2023-09-18T06:00:45;6.1;;;2.7;;
44126;SDS011;29786;50.798;7.302;2023-09-18T06:01:45;7.7;;;2.5;;
44126;SDS011;29786;50.798;7.302;2023-09-18T06:02:45;5.6;;;2.2;;
44126;SDS011;29786;50.798;7.302;2023-09-18T06:03:45;7.4;;;2.8;;
44126;SDS011;29786;50.798;7.302;2023-09-18T06:04:45;6.6;;;2.6;;
44126;SDS011;29786;50.798;7.302;2023-09-18T06:05:45;8.3;;;2.7;;
44126;SDS011;29786;50.798;7.302;2023-09-18T06:06:45;6.6;;;2.8;;
44126;SDS011;29786;50.798;7.302;2023-09-18T06:07:45;7.2;;;2.4;;
44126;SDS011;29786;50.798;7.302;2023-09-18T06:08:45;9.3;;;2.8;;
44126;SDS011;29786;50.798;7.302;2023-09-18T06:09:45;4.6;;;2.2;;
44126;SDS011;29786;50.798;7.302;2023-09-18T06:10:45;5.1;;;2.4;;
44126;SDS011;29786;50.798;7.302;2023-09-18T06:11:45;6.8;;;2.7;;
44126;SDS011;29786;50.798;7.302;2023-09-18T06:12:45;8.8;;;2.6;;
44126;SDS011;29786;50.798;7.302;2023-09-18T06:13:45;6.6;;;2.2;;
44126;SDS011;29786;50.798;7.302;2023-09-18T06:14:45;8.2;;;2.8;;
44126;SDS011;29786;50.798;7.302;2023-09-18T06:15:45;7.4;;;2.5;;